Time;durP1;ratioP1;P1;durP2;ratioP2;P2;SDS_P1;SDS_P2;PMS_P1;PMS_P2;Temp;Humidity;BMP_temperature;BMP_pressure;BME280_temperature;BME280_humidity;BME280_pressure;Samples;Min_cycle;Max_cycle;Signal;HPM_P1;HPM_P2
2021/12/14 00:01:27;;;;;;;9.25;4.05;;;3.90;99.90;;;;;;5055890;28;20025;-73
2021/12/14 00:04:02;;;;;;;9.32;4.38;;;4.00;99.90;;;;;;5062997;28;20017;-73
2021/12/14 00:06:28;;;;;;;11.85;4.38;;;4.00;99.90;;;;;;5067861;28;20043;-73
2021/12/14 00:08:59;;;;;;;5.03;2.33;;;4.10;99.90;;;;;;5059479;28;20390;-73
2021/12/14 00:14:27;;;;;;;5.63;2.00;;;4.10;99.90;;;;;;5069353;28;20036;-73
2021/12/14 00:16:57;;;;;;;6.10;3.28;;;4.20;99.90;;;;;;5065856;28;20509;-73
2021/12/14 00:19:24;;;;;;;5.72;2.88;;;4.30;99.90;;;;;;5054490;28;20032;-73
2021/12/14 00:21:53;;;;;;;7.00;3.90;;;4.10;99.90;;;;;;5052116;28;20035;-72
2021/12/14 00:24:23;;;;;;;5.63;3.03;;;4.00;99.90;;;;;;5060141;28;20415;-73
2021/12/14 00:26:59;;;;;;;8.73;4.60;;;3.70;99.90;;;;;;5061527;28;20379;-72
2021/12/14 00:29:35;;;;;;;11.48;4.53;;;3.60;99.90;;;;;;5052382;28;20104;-73
2021/12/14 00:32:09;;;;;;;9.38;4.80;;;3.60;99.90;;;;;;5054800;28;20074;-73
2021/12/14 00:34:39;;;;;;;9.00;5.05;;;3.70;99.90;;;;;;5053605;28;20079;-73
2021/12/14 00:37:11;;;;;;;6.97;3.25;;;3.70;99.90;;;;;;5054196;28;20550;-73
2021/12/14 00:39:38;;;;;;;19.13;10.55;;;3.70;99.90;;;;;;5066724;28;20040;-72
2021/12/14 00:42:04;;;;;;;12.60;7.72;;;3.90;99.90;;;;;;5066894;28;20039;-73
2021/12/14 00:44:32;;;;;;;51.85;33.08;;;3.70;99.90;;;;;;5056498;28;20461;-72
2021/12/14 00:46:58;;;;;;;47.08;31.85;;;3.70;99.90;;;;;;5052995;28;20041;-73
2021/12/14 00:49:24;;;;;;;12.68;7.30;;;3.50;99.90;;;;;;5058645;28;20035;-72
2021/12/14 00:51:50;;;;;;;12.02;5.90;;;3.50;99.90;;;;;;5063933;28;20115;-73
2021/12/14 00:54:17;;;;;;;11.57;4.63;;;3.50;99.90;;;;;;5063347;28;20063;-73
2021/12/14 00:56:45;;;;;;;20.85;17.98;;;3.60;99.90;;;;;;5059095;28;20029;-73
2021/12/14 00:59:13;;;;;;;5.82;2.97;;;3.40;99.90;;;;;;5051521;28;20029;-72
2021/12/14 01:01:46;;;;;;;5.97;3.97;;;3.40;99.90;;;;;;5066691;28;20025;-73
2021/12/14 01:04:17;;;;;;;4.80;2.17;;;3.60;99.90;;;;;;5053183;28;20033;-73
2021/12/14 01:06:47;;;;;;;4.40;2.28;;;4.00;99.90;;;;;;5063696;28;20033;-73
2021/12/14 01:09:21;;;;;;;6.72;2.88;;;4.60;99.90;;;;;;5067830;28;20108;-73
2021/12/14 01:11:48;;;;;;;6.18;3.33;;;4.20;99.90;;;;;;5058696;28;20487;-73
2021/12/14 01:14:28;;;;;;;18.50;8.60;;;3.80;99.90;;;;;;5051586;28;20464;-73
2021/12/14 01:17:11;;;;;;;11.80;5.05;;;3.80;99.90;;;;;;5055794;28;20013;-73
2021/12/14 01:19:43;;;;;;;8.27;4.63;;;3.60;99.90;;;;;;5052717;28;20484;-72
2021/12/14 01:22:33;;;;;;;9.88;4.38;;;3.60;99.90;;;;;;5053842;28;20029;-73
2021/12/14 01:25:23;;;;;;;4.68;2.47;;;3.50;99.90;;;;;;5057980;28;20048;-73
2021/12/14 01:27:58;;;;;;;5.32;3.03;;;3.50;99.90;;;;;;5065140;28;20037;-72
2021/12/14 01:30:50;;;;;;;4.72;2.78;;;3.40;99.90;;;;;;5053656;28;20025;-73
2021/12/14 01:33:18;;;;;;;4.65;2.80;;;3.60;99.90;;;;;;5063533;28;20028;-73
2021/12/14 01:35:46;;;;;;;7.53;2.90;;;3.70;99.90;;;;;;5063360;28;20120;-73
2021/12/14 01:40:55;;;;;;;5.28;2.97;;;3.30;99.90;;;;;;5053053;28;20056;-72
2021/12/14 01:43:35;;;;;;;4.25;1.83;;;3.40;99.90;;;;;;5055860;28;20367;-73
2021/12/14 01:46:12;;;;;;;3.30;1.40;;;3.70;99.90;;;;;;5053754;28;20033;-73
2021/12/14 01:48:39;;;;;;;3.25;1.30;;;4.00;99.90;;;;;;5052826;28;20109;-72
2021/12/14 01:51:08;;;;;;;5.82;2.30;;;4.30;99.90;;;;;;5052587;28;20027;-73
2021/12/14 01:53:36;;;;;;;5.22;3.28;;;4.30;99.90;;;;;;5059678;28;20090;-73
2021/12/14 01:56:06;;;;;;;5.53;3.22;;;3.90;99.90;;;;;;5064454;28;20478;-73
2021/12/14 01:58:42;;;;;;;8.02;5.65;;;3.70;99.90;;;;;;5065332;28;20082;-73
2021/12/14 02:01:16;;;;;;;6.05;4.13;;;3.60;99.90;;;;;;5070728;28;20025;-73
2021/12/14 02:03:57;;;;;;;6.38;2.72;;;3.40;99.90;;;;;;5053547;28;20032;-72
2021/12/14 02:06:29;;;;;;;6.03;2.78;;;3.20;99.90;;;;;;5065579;28;20486;-73
2021/12/14 02:09:05;;;;;;;7.03;3.67;;;3.10;99.90;;;;;;5062651;28;20029;-73
2021/12/14 02:11:34;;;;;;;5.47;2.83;;;3.10;99.90;;;;;;5066444;28;20033;-72
2021/12/14 02:14:01;;;;;;;4.90;1.88;;;3.10;99.90;;;;;;5050396;28;20407;-72
2021/12/14 02:16:28;;;;;;;7.70;3.50;;;3.00;99.90;;;;;;5054340;28;20033;-73
2021/12/14 02:18:58;;;;;;;3.88;1.73;;;3.40;99.90;;;;;;5062811;28;20403;-72
2021/12/14 02:21:25;;;;;;;5.32;2.38;;;4.10;99.90;;;;;;5060022;28;20024;-72
2021/12/14 02:23:53;;;;;;;3.00;1.55;;;4.00;99.90;;;;;;5065235;28;20052;-73
2021/12/14 02:26:25;;;;;;;4.95;2.42;;;4.10;99.90;;;;;;5057483;28;20025;-73
2021/12/14 02:28:52;;;;;;;4.18;2.20;;;3.80;99.90;;;;;;5069495;28;20063;-73
2021/12/14 02:31:20;;;;;;;5.43;2.45;;;3.60;99.90;;;;;;5055878;28;20025;-72
2021/12/14 02:33:49;;;;;;;7.03;1.85;;;3.40;99.90;;;;;;5051882;28;20048;-73
2021/12/14 02:36:24;;;;;;;3.35;1.55;;;3.40;99.90;;;;;;5051131;28;20048;-73
2021/12/14 02:39:03;;;;;;;3.80;1.60;;;3.50;99.90;;;;;;5063233;28;20032;-73
2021/12/14 02:41:29;;;;;;;2.97;1.13;;;3.80;99.90;;;;;;5052109;28;20063;-73
2021/12/14 02:43:58;;;;;;;4.63;1.67;;;4.50;99.90;;;;;;5048965;28;20106;-73
2021/12/14 02:46:34;;;;;;;3.50;1.08;;;4.40;99.90;;;;;;5061848;28;20040;-73
2021/12/14 02:49:05;;;;;;;2.67;1.13;;;4.50;99.90;;;;;;5063113;28;20021;-73
2021/12/14 02:51:49;;;;;;;2.17;1.17;;;4.40;99.90;;;;;;5066100;28;20029;-73
2021/12/14 02:54:26;;;;;;;4.40;1.40;;;4.60;99.90;;;;;;5050280;28;20441;-73
2021/12/14 02:57:05;;;;;;;4.20;1.90;;;4.70;99.90;;;;;;5036106;28;20432;-72
2021/12/14 02:59:35;;;;;;;9.02;3.22;;;4.50;99.90;;;;;;5068139;28;21007;-73
2021/12/14 03:02:08;;;;;;;7.32;3.30;;;4.00;99.90;;;;;;5060462;28;20505;-73
2021/12/14 03:04:39;;;;;;;5.88;3.03;;;3.70;99.90;;;;;;5064841;28;20060;-72
2021/12/14 03:07:06;;;;;;;5.20;2.58;;;3.60;99.90;;;;;;5066905;28;20048;-73
2021/12/14 03:09:53;;;;;;;3.25;1.58;;;3.40;99.90;;;;;;5051978;28;20116;-73
2021/12/14 03:12:27;;;;;;;2.83;1.27;;;3.80;99.90;;;;;;5052533;28;20021;-72
2021/12/14 03:15:27;;;;;;;3.85;1.20;;;4.20;99.90;;;;;;5057871;28;20055;-73
2021/12/14 03:17:58;;;;;;;5.40;2.50;;;4.10;99.90;;;;;;5057221;28;20035;-73
2021/12/14 03:20:53;;;;;;;4.40;1.80;;;3.50;99.90;;;;;;5056745;28;20021;-73
2021/12/14 03:23:41;;;;;;;3.78;1.17;;;3.30;99.90;;;;;;5045403;28;20049;-73
2021/12/14 03:26:10;;;;;;;2.40;1.10;;;3.60;99.90;;;;;;5050912;28;20021;-73
2021/12/14 03:28:37;;;;;;;4.18;1.55;;;4.20;99.90;;;;;;5051119;28;20043;-73
2021/12/14 03:31:22;;;;;;;6.28;2.85;;;4.50;99.90;;;;;;5051191;28;20043;-74
2021/12/14 03:34:07;;;;;;;4.97;2.67;;;3.90;99.90;;;;;;5064717;28;20040;-73
2021/12/14 03:36:38;;;;;;;5.78;3.13;;;3.30;99.90;;;;;;5068994;28;20989;-73
2021/12/14 03:39:21;;;;;;;3.80;1.70;;;3.00;99.90;;;;;;5065149;28;20429;-73
2021/12/14 03:42:00;;;;;;;2.30;1.15;;;3.10;99.90;;;;;;5052997;28;20059;-73
2021/12/14 03:44:31;;;;;;;3.33;1.48;;;3.80;99.90;;;;;;5047384;28;20441;-73
2021/12/14 03:47:03;;;;;;;2.58;1.35;;;4.30;99.90;;;;;;5053866;28;20044;-72
2021/12/14 03:49:43;;;;;;;6.32;1.92;;;4.30;99.90;;;;;;5052178;28;20037;-73
2021/12/14 03:52:11;;;;;;;2.58;1.20;;;4.40;99.90;;;;;;5048559;28;20784;-72
2021/12/14 03:54:38;;;;;;;2.58;1.25;;;4.40;99.90;;;;;;5063747;28;20029;-73
2021/12/14 03:57:04;;;;;;;6.32;1.52;;;4.50;99.90;;;;;;5063959;28;20033;-72
2021/12/14 03:59:31;;;;;;;2.95;1.20;;;4.30;99.90;;;;;;5056386;28;20044;-73
2021/12/14 04:01:59;;;;;;;2.72;1.17;;;4.20;99.90;;;;;;5061659;28;20040;-72
2021/12/14 04:04:29;;;;;;;3.30;1.80;;;4.30;99.90;;;;;;5062175;28;20064;-72
2021/12/14 04:06:57;;;;;;;2.25;1.17;;;4.20;99.90;;;;;;5054783;28;20516;-72
2021/12/14 04:09:26;;;;;;;2.55;1.35;;;4.00;99.90;;;;;;5052821;28;20055;-72
2021/12/14 04:11:52;;;;;;;1.88;1.00;;;3.90;99.90;;;;;;5046922;28;20039;-72
2021/12/14 04:14:18;;;;;;;4.88;2.38;;;3.80;99.90;;;;;;5046716;28;20112;-72
2021/12/14 04:16:48;;;;;;;7.00;2.72;;;3.60;99.90;;;;;;5046896;28;20143;-72
2021/12/14 04:19:21;;;;;;;3.45;1.75;;;3.50;99.90;;;;;;5047235;28;20033;-72
2021/12/14 04:21:47;;;;;;;2.72;1.15;;;3.70;99.90;;;;;;5047812;28;20029;-72
2021/12/14 04:24:18;;;;;;;3.83;1.30;;;4.10;99.90;;;;;;5061931;28;20491;-72
2021/12/14 04:26:46;;;;;;;4.78;1.38;;;4.30;99.90;;;;;;5050782;28;20039;-72
2021/12/14 04:29:12;;;;;;;2.55;1.20;;;4.30;99.90;;;;;;5031773;28;20029;-73
2021/12/14 04:31:39;;;;;;;3.92;1.42;;;4.60;99.90;;;;;;5050111;28;20025;-72
2021/12/14 04:34:05;;;;;;;3.90;1.38;;;4.60;99.90;;;;;;5057758;28;20045;-72
2021/12/14 04:36:31;;;;;;;4.30;1.50;;;4.40;99.90;;;;;;5054087;28;20047;-72
2021/12/14 04:39:02;;;;;;;4.38;1.38;;;4.60;99.90;;;;;;5058843;28;20067;-72
2021/12/14 04:52:43;;;;;;;4.03;2.10;;;3.50;99.90;;;;;;5056416;28;20090;-73
2021/12/14 04:55:10;;;;;;;3.38;1.35;;;3.50;99.90;;;;;;5045001;28;20053;-73
2021/12/14 04:57:43;;;;;;;4.20;1.65;;;3.30;99.90;;;;;;5043950;28;20031;-73
2021/12/14 05:00:30;;;;;;;3.75;1.25;;;3.60;99.90;;;;;;5045377;28;20040;-73
2021/12/14 05:02:59;;;;;;;2.97;1.23;;;4.30;99.90;;;;;;5046298;28;20025;-73
2021/12/14 05:05:30;;;;;;;5.53;2.20;;;4.60;99.90;;;;;;5050874;28;20104;-74
2021/12/14 05:10:41;;;;;;;2.28;1.02;;;4.20;99.90;;;;;;5052102;28;20040;-73
2021/12/14 05:13:07;;;;;;;5.38;2.55;;;4.20;99.90;;;;;;5046729;28;20082;-73
2021/12/14 05:15:40;;;;;;;5.03;2.63;;;4.00;99.90;;;;;;5045084;28;20025;-73
2021/12/14 05:18:11;;;;;;;1.92;1.02;;;3.50;99.90;;;;;;5058043;28;20411;-73
2021/12/14 05:20:44;;;;;;;3.70;1.38;;;3.50;99.90;;;;;;5047956;28;20098;-73
2021/12/14 05:23:10;;;;;;;3.10;1.15;;;3.70;99.90;;;;;;5046965;28;20031;-73
2021/12/14 05:25:38;;;;;;;2.25;0.85;;;4.00;99.90;;;;;;5046780;28;20727;-73
2021/12/14 05:28:06;;;;;;;2.83;1.42;;;4.50;99.90;;;;;;5052969;28;20028;-73
2021/12/14 05:30:37;;;;;;;4.50;2.13;;;4.50;99.90;;;;;;5062506;28;20021;-73
2021/12/14 05:33:06;;;;;;;3.78;1.23;;;4.10;99.90;;;;;;5048893;28;20031;-73
2021/12/14 05:35:33;;;;;;;6.38;2.67;;;3.90;99.90;;;;;;5046608;28;20627;-74
2021/12/14 05:38:01;;;;;;;5.80;2.75;;;3.50;99.90;;;;;;5057908;28;20029;-74
2021/12/14 05:43:09;;;;;;;6.37;1.80;;;3.30;99.90;;;;;;5047087;28;20610;-74
2021/12/14 05:45:39;;;;;;;4.32;2.25;;;3.10;99.90;;;;;;5043776;28;20036;-74
2021/12/14 05:48:07;;;;;;;4.40;2.60;;;3.00;99.90;;;;;;5043269;28;20136;-74
2021/12/14 05:50:43;;;;;;;6.80;2.28;;;2.90;99.90;;;;;;5046756;28;20136;-74
2021/12/14 05:53:09;;;;;;;4.82;2.22;;;3.00;99.90;;;;;;5052015;28;20962;-74
2021/12/14 05:55:39;;;;;;;3.95;1.77;;;3.00;99.90;;;;;;5045381;28;20029;-74
2021/12/14 05:58:13;;;;;;;1.48;0.82;;;3.00;99.90;;;;;;5046576;28;20024;-74
2021/12/14 06:00:44;;;;;;;4.40;1.35;;;3.50;99.90;;;;;;5049908;28;20052;-74
2021/12/14 06:03:16;;;;;;;2.80;1.40;;;3.60;99.90;;;;;;5045798;28;20043;-74
2021/12/14 06:05:42;;;;;;;2.50;1.02;;;3.90;99.90;;;;;;5064992;28;20020;-73
2021/12/14 06:08:07;;;;;;;3.83;1.30;;;3.90;99.90;;;;;;5044547;28;20040;-73
2021/12/14 06:10:33;;;;;;;3.70;1.20;;;3.90;99.90;;;;;;5050474;28;20074;-74
2021/12/14 06:12:59;;;;;;;2.67;1.02;;;3.70;99.90;;;;;;5054991;28;20085;-74
2021/12/14 06:15:28;;;;;;;3.67;1.75;;;4.00;99.90;;;;;;5052556;28;20659;-74
2021/12/14 06:17:54;;;;;;;6.90;3.03;;;3.60;99.90;;;;;;5046449;28;20028;-74
2021/12/14 06:20:23;;;;;;;6.80;2.70;;;3.20;99.90;;;;;;5055091;28;20553;-73
2021/12/14 06:22:54;;;;;;;4.57;2.55;;;3.00;99.90;;;;;;5055800;28;20029;-74
2021/12/14 06:25:24;;;;;;;4.40;2.63;;;2.90;99.90;;;;;;5044595;28;20033;-73
2021/12/14 06:27:53;;;;;;;5.97;3.13;;;2.60;99.90;;;;;;5052640;28;20033;-74
2021/12/14 06:30:31;;;;;;;6.88;2.75;;;2.50;99.90;;;;;;5054367;28;20491;-74
2021/12/14 06:33:07;;;;;;;2.28;1.05;;;2.40;99.90;;;;;;5058936;28;20513;-73
2021/12/14 06:35:45;;;;;;;4.03;1.70;;;2.90;99.90;;;;;;5054496;28;20024;-74
2021/12/14 06:38:29;;;;;;;11.15;2.72;;;3.10;99.90;;;;;;5048586;28;20058;-75
2021/12/14 06:41:17;;;;;;;4.45;2.33;;;3.00;99.90;;;;;;5062786;28;20064;-75
2021/12/14 06:43:56;;;;;;;4.75;1.73;;;3.00;99.90;;;;;;5043382;28;20120;-75
2021/12/14 06:46:32;;;;;;;3.60;1.20;;;3.00;99.90;;;;;;5053150;28;20055;-74
2021/12/14 06:49:13;;;;;;;4.25;1.88;;;3.20;99.90;;;;;;5055646;28;20044;-75
2021/12/14 06:51:41;;;;;;;3.30;1.60;;;3.00;99.90;;;;;;5043860;28;20081;-75
2021/12/14 06:54:36;;;;;;;3.05;1.33;;;2.90;99.90;;;;;;5040226;28;20036;-74
2021/12/14 06:57:04;;;;;;;4.00;2.15;;;2.80;99.90;;;;;;5036511;28;20043;-74
2021/12/14 06:59:30;;;;;;;5.60;2.47;;;2.60;99.90;;;;;;5054740;28;20037;-75
2021/12/14 07:02:00;;;;;;;6.22;2.45;;;2.50;99.90;;;;;;5044113;28;20553;-74
2021/12/14 07:04:30;;;;;;;5.85;3.30;;;2.60;99.90;;;;;;5044144;28;20230;-75
2021/12/14 07:06:59;;;;;;;8.63;3.40;;;2.70;99.90;;;;;;5047607;28;20036;-75
2021/12/14 07:09:38;;;;;;;5.70;2.47;;;2.70;99.90;;;;;;5043996;28;20856;-74
2021/12/14 07:12:04;;;;;;;2.30;1.35;;;2.60;99.90;;;;;;5043882;28;20075;-75
2021/12/14 07:14:36;;;;;;;3.35;1.45;;;2.80;99.90;;;;;;5043631;28;20411;-74
2021/12/14 07:17:26;;;;;;;3.80;1.10;;;3.60;99.90;;;;;;5043792;28;20393;-74
2021/12/14 07:19:58;;;;;;;2.90;1.23;;;4.20;99.90;;;;;;5044158;28;20025;-75
2021/12/14 07:22:24;;;;;;;2.40;1.27;;;4.30;99.90;;;;;;5043344;28;20098;-74
2021/12/14 07:25:03;;;;;;;4.28;1.27;;;4.70;99.90;;;;;;5046104;28;20047;-75
2021/12/14 07:27:37;;;;;;;2.92;1.08;;;4.70;99.90;;;;;;5061763;28;20811;-74
2021/12/14 07:30:09;;;;;;;3.10;1.40;;;4.60;99.90;;;;;;5045855;28;20039;-75
2021/12/14 07:32:45;;;;;;;2.97;1.20;;;4.20;99.90;;;;;;5046383;28;20033;-74
2021/12/14 07:35:31;;;;;;;3.22;1.58;;;3.90;99.90;;;;;;5045987;28;20028;-74
2021/12/14 07:38:23;;;;;;;2.38;0.98;;;3.90;99.90;;;;;;5046145;28;20067;-74
2021/12/14 07:41:12;;;;;;;3.28;1.00;;;3.80;99.90;;;;;;5065199;28;20051;-74
2021/12/14 07:44:09;;;;;;;2.92;1.23;;;3.80;99.90;;;;;;5046003;28;20038;-75
2021/12/14 07:46:40;;;;;;;5.57;2.53;;;3.80;99.90;;;;;;5047351;28;20133;-75
2021/12/14 07:49:32;;;;;;;6.32;4.20;;;3.80;99.90;;;;;;5052039;28;20021;-74
2021/12/14 07:52:21;;;;;;;4.80;2.05;;;3.60;99.90;;;;;;5047305;28;20032;-74
2021/12/14 07:54:51;;;;;;;6.03;2.40;;;3.40;99.90;;;;;;5047255;28;20108;-75
2021/12/14 07:57:25;;;;;;;11.68;4.03;;;3.80;99.90;;;;;;5048280;28;20057;-75
2021/12/14 08:00:08;;;;;;;4.53;2.15;;;3.60;99.90;;;;;;5047156;28;20044;-73
2021/12/14 08:02:38;;;;;;;9.05;3.72;;;3.90;99.90;;;;;;5046647;28;20118;-74
2021/12/14 08:05:33;;;;;;;7.70;4.38;;;3.90;99.90;;;;;;5047659;28;20074;-73
2021/12/14 08:08:16;;;;;;;9.18;4.85;;;3.50;99.90;;;;;;5054282;28;20027;-75
2021/12/14 08:11:27;;;;;;;9.23;4.63;;;3.20;99.90;;;;;;5056200;28;20061;-74
2021/12/14 08:13:54;;;;;;;5.55;2.42;;;3.30;99.90;;;;;;5046546;28;20029;-74
2021/12/14 08:16:20;;;;;;;5.28;2.95;;;3.40;99.90;;;;;;5064792;28;20025;-73
2021/12/14 08:18:47;;;;;;;5.95;3.30;;;3.70;99.90;;;;;;5049248;28;20025;-75
2021/12/14 08:21:19;;;;;;;11.77;4.53;;;4.30;99.90;;;;;;5048655;28;20062;-74
2021/12/14 08:23:56;;;;;;;10.07;5.97;;;4.30;99.90;;;;;;5043829;28;20033;-74
2021/12/14 08:26:24;;;;;;;4.97;2.70;;;4.00;99.90;;;;;;5060466;28;20035;-74
2021/12/14 08:29:00;;;;;;;7.55;3.88;;;3.80;99.90;;;;;;5044717;28;20021;-73
2021/12/14 08:31:44;;;;;;;7.95;4.10;;;3.30;99.90;;;;;;5044450;28;20025;-72
2021/12/14 08:34:17;;;;;;;70.40;36.78;;;3.30;99.90;;;;;;5044601;28;20029;-72
2021/12/14 08:36:44;;;;;;;59.95;34.78;;;3.30;99.90;;;;;;5047916;28;20037;-74
2021/12/14 08:39:42;;;;;;;20.25;11.40;;;3.40;99.90;;;;;;5046284;28;20045;-73
2021/12/14 08:42:17;;;;;;;14.20;8.27;;;3.50;99.90;;;;;;5037810;28;20045;-73
2021/12/14 08:44:52;;;;;;;8.45;4.35;;;3.60;99.90;;;;;;5047302;28;20033;-73
2021/12/14 08:47:29;;;;;;;17.48;10.45;;;3.60;99.90;;;;;;5054321;28;20037;-73
2021/12/14 08:49:58;;;;;;;30.52;17.60;;;3.90;99.90;;;;;;5045860;28;20041;-72
2021/12/14 08:52:26;;;;;;;9.38;5.18;;;4.00;99.90;;;;;;5046366;28;20025;-74
2021/12/14 08:54:53;;;;;;;24.25;13.23;;;4.10;99.90;;;;;;5046283;28;20368;-75
2021/12/14 08:57:23;;;;;;;42.85;22.55;;;4.20;99.90;;;;;;5046139;28;20652;-75
2021/12/14 08:59:53;;;;;;;10.27;5.43;;;4.60;99.90;;;;;;5051270;28;20036;-77
2021/12/14 09:02:20;;;;;;;23.98;12.18;;;5.00;99.90;;;;;;5050256;28;20028;-76
2021/12/14 09:05:20;;;;;;;7.18;3.60;;;5.20;99.90;;;;;;5049264;28;20593;-79
2021/12/14 09:07:46;;;;;;;6.40;3.00;;;5.60;99.90;;;;;;5035033;28;20959;-77
2021/12/14 09:10:18;;;;;;;3.90;1.75;;;5.60;99.90;;;;;;5047016;28;20115;-76
2021/12/14 09:12:48;;;;;;;41.17;20.50;;;5.40;99.90;;;;;;5054486;28;20029;-74
2021/12/14 09:15:23;;;;;;;14.98;7.65;;;5.50;99.90;;;;;;5053544;28;20093;-74
2021/12/14 09:17:52;;;;;;;7.15;3.13;;;5.50;99.90;;;;;;5049836;28;20029;-77
2021/12/14 09:20:28;;;;;;;7.30;2.75;;;5.40;99.90;;;;;;5069133;28;20725;-79
2021/12/14 09:22:59;;;;;;;27.38;14.15;;;5.10;99.90;;;;;;5065532;28;20017;-78
2021/12/14 09:25:29;;;;;;;10.25;4.97;;;5.30;99.90;;;;;;5059483;28;20111;-75
2021/12/14 09:27:57;;;;;;;5.50;3.30;;;5.50;99.90;;;;;;5061893;28;20021;-76
2021/12/14 09:30:26;;;;;;;4.85;2.38;;;5.20;99.90;;;;;;5050564;28;20918;-75
2021/12/14 09:32:53;;;;;;;13.90;6.47;;;5.70;99.90;;;;;;5058170;28;20031;-76
2021/12/14 09:35:24;;;;;;;74.13;39.85;;;5.60;99.90;;;;;;5056872;28;20043;-75
2021/12/14 09:37:53;;;;;;;162.35;84.32;;;5.60;99.90;;;;;;5045491;28;20033;-76
2021/12/14 09:40:27;;;;;;;18.80;9.98;;;5.60;99.90;;;;;;5065031;28;20037;-76
2021/12/14 09:42:54;;;;;;;5.55;3.17;;;5.30;99.90;;;;;;5059926;28;20112;-76
2021/12/14 09:45:25;;;;;;;584.30;325.25;;;5.40;99.90;;;;;;5045979;28;20057;-77
2021/12/14 09:47:52;;;;;;;40.08;21.10;;;5.50;99.90;;;;;;5058959;28;20135;-76
2021/12/14 09:50:27;;;;;;;12.45;6.82;;;5.20;99.90;;;;;;5044593;28;20040;-76
2021/12/14 09:52:54;;;;;;;73.97;37.78;;;5.00;99.90;;;;;;5044862;28;20029;-76
2021/12/14 09:55:24;;;;;;;92.30;46.92;;;5.10;99.90;;;;;;5053005;28;20032;-76
2021/12/14 09:57:59;;;;;;;29.33;15.93;;;5.00;99.90;;;;;;5059924;28;20036;-75
2021/12/14 10:00:35;;;;;;;15.05;8.48;;;5.10;99.90;;;;;;5042760;28;20033;-76
2021/12/14 10:03:02;;;;;;;11.57;5.90;;;5.20;99.90;;;;;;5046192;28;20037;-74
2021/12/14 10:05:38;;;;;;;10.00;4.68;;;5.20;99.90;;;;;;5046615;28;20029;-75
2021/12/14 10:08:14;;;;;;;10.02;5.32;;;5.20;99.90;;;;;;5045063;28;20036;-75
2021/12/14 10:10:47;;;;;;;19.15;9.48;;;5.00;99.90;;;;;;5047440;28;20108;-75
2021/12/14 10:13:14;;;;;;;19.88;10.18;;;5.00;99.90;;;;;;5044872;28;20082;-75
2021/12/14 10:15:46;;;;;;;10.45;5.65;;;5.00;99.90;;;;;;5044982;28;20033;-75
2021/12/14 10:18:23;;;;;;;46.08;23.10;;;5.10;99.90;;;;;;5055235;28;20140;-75
2021/12/14 10:20:56;;;;;;;17.58;9.43;;;5.00;99.90;;;;;;5043468;28;20093;-75
2021/12/14 10:23:24;;;;;;;25.77;14.30;;;5.20;99.90;;;;;;5052970;28;20046;-75
2021/12/14 10:25:52;;;;;;;11.18;5.53;;;5.20;99.90;;;;;;5046178;28;20037;-75
2021/12/14 10:28:19;;;;;;;7.68;4.40;;;5.00;99.90;;;;;;5042752;28;20036;-75
2021/12/14 10:30:53;;;;;;;14.68;4.88;;;4.90;99.90;;;;;;5052310;28;20071;-75
2021/12/14 10:33:20;;;;;;;49.83;22.30;;;4.90;99.90;;;;;;5051425;28;20039;-75
2021/12/14 10:35:51;;;;;;;14.20;8.13;;;4.90;99.90;;;;;;5043686;28;20029;-75
2021/12/14 10:38:28;;;;;;;8.18;4.20;;;4.90;99.90;;;;;;5045646;28;20041;-75
2021/12/14 10:43:53;;;;;;;10.30;4.97;;;5.20;99.90;;;;;;5044517;28;20529;-74
2021/12/14 10:46:34;;;;;;;5.43;2.10;;;5.30;99.90;;;;;;5043911;28;20057;-74
2021/12/14 10:49:00;;;;;;;4.18;2.13;;;5.70;99.60;;;;;;5044224;28;20032;-74
2021/12/14 10:51:33;;;;;;;4.43;1.80;;;5.90;98.90;;;;;;5057120;28;20021;-74
2021/12/14 10:54:03;;;;;;;3.40;1.67;;;6.00;98.60;;;;;;5052139;28;20509;-75
2021/12/14 10:56:39;;;;;;;4.50;2.25;;;6.10;98.20;;;;;;5064355;28;20078;-75
2021/12/14 10:59:06;;;;;;;4.60;1.70;;;6.10;98.30;;;;;;5047911;28;20116;-75
2021/12/14 11:01:35;;;;;;;3.97;1.42;;;6.00;98.30;;;;;;5060346;28;20025;-75
2021/12/14 11:04:10;;;;;;;3.75;1.58;;;6.00;98.50;;;;;;5047180;28;20467;-75
2021/12/14 11:06:42;;;;;;;4.13;1.80;;;6.10;98.00;;;;;;5064749;28;20429;-74
2021/12/14 11:11:49;;;;;;;5.47;2.92;;;6.20;98.30;;;;;;5058776;28;20036;-74
2021/12/14 11:14:20;;;;;;;47.30;25.70;;;6.00;98.40;;;;;;5049773;28;20082;-74
2021/12/14 11:19:45;;;;;;;12.55;6.65;;;6.10;98.70;;;;;;5047479;28;20514;-74
2021/12/14 11:22:20;;;;;;;8.15;3.85;;;5.90;98.80;;;;;;5049530;28;20033;-75
2021/12/14 11:24:56;;;;;;;5.95;3.45;;;5.80;99.20;;;;;;5044933;28;20167;-75
2021/12/14 11:27:23;;;;;;;76.15;35.92;;;5.70;99.50;;;;;;5044699;28;20032;-74
2021/12/14 11:30:21;;;;;;;96.68;49.38;;;5.70;99.90;;;;;;5045173;28;20025;-74
2021/12/14 11:33:08;;;;;;;39.53;23.85;;;5.80;99.90;;;;;;5043664;28;20040;-75
2021/12/14 11:35:44;;;;;;;209.02;125.07;;;5.80;99.90;;;;;;5003597;28;20044;-75
2021/12/14 11:38:30;;;;;;;146.88;75.43;;;5.80;99.80;;;;;;5046691;28;20028;-75
2021/12/14 11:40:59;;;;;;;40.22;21.02;;;5.80;99.60;;;;;;5035112;28;20052;-74
2021/12/14 11:43:30;;;;;;;32.05;16.88;;;5.90;99.40;;;;;;5046169;28;20029;-74
2021/12/14 11:45:57;;;;;;;22.55;13.43;;;5.90;99.60;;;;;;5037649;28;20033;-74
2021/12/14 11:48:33;;;;;;;11.90;6.07;;;5.90;99.80;;;;;;5048125;28;20111;-74
2021/12/14 11:51:01;;;;;;;10.27;5.05;;;5.80;99.70;;;;;;5046767;28;20029;-75
2021/12/14 11:53:27;;;;;;;11.02;5.70;;;5.60;99.70;;;;;;5046196;28;20064;-74
2021/12/14 11:55:55;;;;;;;49.78;27.27;;;5.60;99.90;;;;;;5046686;28;20064;-74
2021/12/14 11:58:33;;;;;;;15.80;7.10;;;5.70;99.90;;;;;;5046243;28;20025;-75
2021/12/14 12:01:25;;;;;;;12.93;6.35;;;5.70;99.90;;;;;;5058524;28;20102;-75
2021/12/14 12:03:52;;;;;;;11.82;6.22;;;5.80;99.90;;;;;;5049940;28;20032;-74
2021/12/14 12:09:30;;;;;;;10.45;4.78;;;5.90;99.90;;;;;;5065617;28;20025;-74
2021/12/14 12:11:56;;;;;;;8.35;4.35;;;6.00;99.60;;;;;;5046718;28;20024;-74
2021/12/14 12:14:49;;;;;;;4.93;2.10;;;6.10;99.50;;;;;;5050516;28;20025;-74
2021/12/14 12:17:36;;;;;;;4.13;1.92;;;6.50;99.40;;;;;;5051184;28;20020;-74
2021/12/14 12:20:11;;;;;;;2.97;1.38;;;6.70;97.10;;;;;;5052802;28;20095;-74
2021/12/14 12:22:39;;;;;;;;;;;6.80;96.30;;;;;;5046677;28;20071;-74
2021/12/14 12:25:28;;;;;;;8.18;4.30;;;6.80;96.60;;;;;;5062066;28;19982;-74
2021/12/14 12:28:02;;;;;;;10.05;5.22;;;6.60;98.20;;;;;;5056299;28;20108;-74
2021/12/14 12:30:33;;;;;;;;;;;6.10;99.70;;;;;;5050100;28;20039;-74
2021/12/14 12:33:07;;;;;;;14.38;7.88;;;5.90;99.90;;;;;;5048408;28;19909;-74
2021/12/14 12:35:42;;;;;;;5.72;2.33;;;5.90;99.90;;;;;;5047731;28;20611;-74
2021/12/14 12:38:24;;;;;;;3.70;1.92;;;6.20;98.60;;;;;;5049592;28;20036;-74
2021/12/14 12:40:59;;;;;;;2.80;1.50;;;6.60;97.30;;;;;;5050187;28;20041;-74
2021/12/14 12:43:27;;;;;;;;;;;6.90;96.00;;;;;;5050575;28;20020;-74
2021/12/14 12:46:01;;;;;;;8.15;4.50;;;6.80;96.30;;;;;;5048253;28;20323;-74
2021/12/14 12:48:43;;;;;;;12.40;4.68;;;6.60;97.30;;;;;;5048874;28;20383;-74
2021/12/14 12:51:10;;;;;;;9.85;5.00;;;6.30;97.90;;;;;;5050044;28;20028;-74
2021/12/14 12:53:36;;;;;;;18.05;11.02;;;6.20;98.50;;;;;;5049807;28;20167;-74
2021/12/14 12:56:13;;;;;;;8.65;4.43;;;6.20;98.40;;;;;;5066664;28;20107;-74
2021/12/14 12:58:45;;;;;;;11.10;4.78;;;6.20;98.50;;;;;;5064183;28;20083;-74
2021/12/14 13:01:11;;;;;;;6.35;3.47;;;6.20;98.60;;;;;;5048859;28;20044;-74
2021/12/14 13:03:42;;;;;;;12.73;7.07;;;6.30;98.00;;;;;;5049094;28;20108;-74
2021/12/14 13:06:10;;;;;;;10.25;3.47;;;6.40;98.10;;;;;;5052901;28;20056;-74
2021/12/14 13:08:43;;;;;;;9.10;3.05;;;6.40;98.10;;;;;;5048317;28;20025;-75
2021/12/14 13:11:09;;;;;;;5.88;2.83;;;6.40;98.10;;;;;;5047258;28;20025;-74
2021/12/14 13:13:37;;;;;;;20.45;12.80;;;6.40;98.00;;;;;;5052831;28;20028;-74
2021/12/14 13:16:12;;;;;;;43.50;25.33;;;6.50;98.20;;;;;;5056440;28;20032;-74
2021/12/14 13:18:51;;;;;;;14.15;7.93;;;6.40;98.90;;;;;;5032960;28;20532;-74
2021/12/14 13:21:26;;;;;;;8.15;5.22;;;6.30;98.60;;;;;;5063954;28;20565;-74
2021/12/14 13:24:11;;;;;;;9.82;4.47;;;6.10;98.60;;;;;;5047416;28;20032;-74
2021/12/14 13:26:39;;;;;;;47.42;24.05;;;6.10;99.00;;;;;;5047417;28;20033;-74
2021/12/14 13:29:11;;;;;;;15.77;10.02;;;5.90;99.60;;;;;;5045823;28;20037;-74
2021/12/14 13:31:49;;;;;;;9.05;4.97;;;5.90;99.80;;;;;;5040262;28;20037;-74
2021/12/14 13:34:27;;;;;;;8.00;5.65;;;5.90;99.90;;;;;;5046737;28;20064;-74
2021/12/14 13:36:55;;;;;;;10.35;4.88;;;5.80;99.80;;;;;;5047177;28;20051;-74
2021/12/14 13:39:21;;;;;;;7.75;5.05;;;5.70;99.90;;;;;;5053948;28;20128;-74
2021/12/14 13:41:58;;;;;;;49.78;25.63;;;5.70;99.90;;;;;;5049185;28;20083;-74
2021/12/14 13:44:30;;;;;;;25.20;14.20;;;5.70;99.90;;;;;;5048996;28;20036;-74
2021/12/14 13:46:57;;;;;;;15.70;6.70;;;5.80;99.90;;;;;;5034710;28;20491;-74
2021/12/14 13:49:25;;;;;;;12.45;5.47;;;5.80;99.90;;;;;;5047869;28;20158;-74
2021/12/14 13:51:51;;;;;;;9.75;4.55;;;5.80;99.90;;;;;;5048712;28;20082;-74
2021/12/14 13:54:17;;;;;;;7.57;3.63;;;5.80;99.90;;;;;;5061516;28;20579;-74
2021/12/14 13:56:45;;;;;;;7.55;3.30;;;5.90;99.90;;;;;;5058106;28;20021;-74